sensor_id;sensor_type;location;lat;lon;timestamp;temperature;humidity
13589;DHT22;6865;52.552;13.434;2023-01-24T00:00:01;1.80;99.90
13589;DHT22;6865;52.552;13.434;2023-01-24T00:02:27;1.80;99.90
13589;DHT22;6865;52.552;13.434;2023-01-24T00:04:54;1.80;99.90
13589;DHT22;6865;52.552;13.434;2023-01-24T00:07:21;1.70;99.90
13589;DHT22;6865;52.552;13.434;2023-01-24T00:09:47;1.90;99.90
13589;DHT22;6865;52.552;13.434;2023-01-24T00:12:14;1.80;99.90
13589;DHT22;6865;52.552;13.434;2023-01-24T00:14:41;1.80;99.90
13589;DHT22;6865;52.552;13.434;2023-01-24T00:17:07;1.80;99.90
13589;DHT22;6865;52.552;13.434;2023-01-24T00:19:34;1.70;99.90
13589;DHT22;6865;52.552;13.434;2023-01-24T00:22:04;1.70;99.90
13589;DHT22;6865;52.552;13.434;2023-01-24T00:24:33;1.70;99.90
13589;DHT22;6865;52.552;13.434;2023-01-24T00:27:01;1.60;99.90
13589;DHT22;6865;52.552;13.434;2023-01-24T00:29:28;1.90;99.90
13589;DHT22;6865;52.552;13.434;2023-01-24T00:31:54;1.60;99.90
13589;DHT22;6865;52.552;13.434;2023-01-24T00:34:21;1.40;99.90
13589;DHT22;6865;52.552;13.434;2023-01-24T00:36:48;1.70;99.90
13589;DHT22;6865;52.552;13.434;2023-01-24T00:39:14;1.70;99.90
13589;DHT22;6865;52.552;13.434;2023-01-24T00:41:41;1.70;99.90
13589;DHT22;6865;52.552;13.434;2023-01-24T00:44:08;1.70;99.90
13589;DHT22;6865;52.552;13.434;2023-01-24T00:46:34;1.60;99.90
13589;DHT22;6865;52.552;13.434;2023-01-24T00:49:01;1.60;99.90
13589;DHT22;6865;52.552;13.434;2023-01-24T00:51:28;1.60;99.90
13589;DHT22;6865;52.552;13.434;2023-01-24T00:53:54;1.60;99.90
13589;DHT22;6865;52.552;13.434;2023-01-24T00:56:21;1.60;99.90
13589;DHT22;6865;52.552;13.434;2023-01-24T00:58:47;1.60;99.90
13589;DHT22;6865;52.552;13.434;2023-01-24T01:01:14;1.60;99.90
13589;DHT22;6865;52.552;13.434;2023-01-24T01:03:40;1.60;99.90
13589;DHT22;6865;52.552;13.434;2023-01-24T01:06:12;1.40;99.90
13589;DHT22;6865;52.552;13.434;2023-01-24T01:08:39;1.60;99.90
13589;DHT22;6865;52.552;13.434;2023-01-24T01:11:06;1.50;99.90
13589;DHT22;6865;52.552;13.434;2023-01-24T01:13:33;1.60;99.90
13589;DHT22;6865;52.552;13.434;2023-01-24T01:16:09;1.50;99.90
13589;DHT22;6865;52.552;13.434;2023-01-24T01:18:37;1.30;99.90
13589;DHT22;6865;52.552;13.434;2023-01-24T01:21:05;1.60;99.90
13589;DHT22;6865;52.552;13.434;2023-01-24T01:23:32;1.50;99.90
13589;DHT22;6865;52.552;13.434;2023-01-24T01:26:00;1.50;99.90
13589;DHT22;6865;52.552;13.434;2023-01-24T01:28:27;1.40;99.90
13589;DHT22;6865;52.552;13.434;2023-01-24T01:30:54;1.50;99.90
13589;DHT22;6865;52.552;13.434;2023-01-24T01:33:21;1.50;99.90
13589;DHT22;6865;52.552;13.434;2023-01-24T01:35:48;1.50;99.90
13589;DHT22;6865;52.552;13.434;2023-01-24T01:38:16;1.50;99.90
13589;DHT22;6865;52.552;13.434;2023-01-24T01:40:43;1.40;99.90
13589;DHT22;6865;52.552;13.434;2023-01-24T01:43:15;1.40;99.90
13589;DHT22;6865;52.552;13.434;2023-01-24T01:50:55;1.50;99.90
13589;DHT22;6865;52.552;13.434;2023-01-24T01:53:24;1.40;99.90
13589;DHT22;6865;52.552;13.434;2023-01-24T01:56:01;1.30;99.90
13589;DHT22;6865;52.552;13.434;2023-01-24T01:58:31;1.40;99.90
13589;DHT22;6865;52.552;13.434;2023-01-24T02:00:59;1.40;99.90
13589;DHT22;6865;52.552;13.434;2023-01-24T02:03:32;1.30;99.90
13589;DHT22;6865;52.552;13.434;2023-01-24T02:06:23;1.40;99.90
13589;DHT22;6865;52.552;13.434;2023-01-24T02:08:52;1.30;99.90
13589;DHT22;6865;52.552;13.434;2023-01-24T02:11:19;1.30;99.90
13589;DHT22;6865;52.552;13.434;2023-01-24T02:14:10;1.30;99.90
13589;DHT22;6865;52.552;13.434;2023-01-24T02:16:57;1.20;99.90
13589;DHT22;6865;52.552;13.434;2023-01-24T02:19:36;1.20;99.90
13589;DHT22;6865;52.552;13.434;2023-01-24T02:22:16;1.20;99.90
13589;DHT22;6865;52.552;13.434;2023-01-24T02:25:34;1.20;99.90
13589;DHT22;6865;52.552;13.434;2023-01-24T02:27:40;1.30;99.90
13589;DHT22;6865;52.552;13.434;2023-01-24T02:30:08;1.30;99.90
13589;DHT22;6865;52.552;13.434;2023-01-24T02:32:34;1.30;99.90
13589;DHT22;6865;52.552;13.434;2023-01-24T02:35:02;1.20;99.90
13589;DHT22;6865;52.552;13.434;2023-01-24T02:37:28;1.20;99.90
13589;DHT22;6865;52.552;13.434;2023-01-24T02:40:05;1.30;99.90
13589;DHT22;6865;52.552;13.434;2023-01-24T02:42:35;1.30;99.90
13589;DHT22;6865;52.552;13.434;2023-01-24T02:45:16;0.90;99.90
13589;DHT22;6865;52.552;13.434;2023-01-24T02:47:48;1.30;99.90
13589;DHT22;6865;52.552;13.434;2023-01-24T02:50:20;1.30;99.90
13589;DHT22;6865;52.552;13.434;2023-01-24T02:52:47;1.30;99.90
13589;DHT22;6865;52.552;13.434;2023-01-24T02:55:34;1.30;99.90
13589;DHT22;6865;52.552;13.434;2023-01-24T02:58:21;1.20;99.90
13589;DHT22;6865;52.552;13.434;2023-01-24T03:00:48;1.00;99.90
13589;DHT22;6865;52.552;13.434;2023-01-24T03:03:15;1.20;99.90
13589;DHT22;6865;52.552;13.434;2023-01-24T03:05:41;1.30;99.90
13589;DHT22;6865;52.552;13.434;2023-01-24T03:08:30;1.30;99.90
13589;DHT22;6865;52.552;13.434;2023-01-24T03:10:57;1.20;99.90
13589;DHT22;6865;52.552;13.434;2023-01-24T03:13:24;1.30;99.90
13589;DHT22;6865;52.552;13.434;2023-01-24T03:16:11;1.30;99.90
13589;DHT22;6865;52.552;13.434;2023-01-24T03:18:56;1.30;99.90
13589;DHT22;6865;52.552;13.434;2023-01-24T03:21:41;1.30;99.90
13589;DHT22;6865;52.552;13.434;2023-01-24T03:24:27;1.30;99.90
13589;DHT22;6865;52.552;13.434;2023-01-24T03:27:12;1.20;99.90
13589;DHT22;6865;52.552;13.434;2023-01-24T03:29:58;1.20;99.90
13589;DHT22;6865;52.552;13.434;2023-01-24T03:32:43;1.20;99.90
13589;DHT22;6865;52.552;13.434;2023-01-24T03:35:29;1.20;99.90
13589;DHT22;6865;52.552;13.434;2023-01-24T03:37:56;1.20;99.90
13589;DHT22;6865;52.552;13.434;2023-01-24T03:40:42;1.20;99.90
13589;DHT22;6865;52.552;13.434;2023-01-24T03:43:09;1.00;99.90
13589;DHT22;6865;52.552;13.434;2023-01-24T03:45:38;1.60;99.90
13589;DHT22;6865;52.552;13.434;2023-01-24T03:48:06;1.20;99.90
13589;DHT22;6865;52.552;13.434;2023-01-24T03:50:41;1.20;99.90
13589;DHT22;6865;52.552;13.434;2023-01-24T03:53:29;1.10;99.90
13589;DHT22;6865;52.552;13.434;2023-01-24T03:55:58;1.20;99.90
13589;DHT22;6865;52.552;13.434;2023-01-24T03:58:26;1.20;99.90
13589;DHT22;6865;52.552;13.434;2023-01-24T04:00:53;1.20;99.90
13589;DHT22;6865;52.552;13.434;2023-01-24T04:03:20;1.40;99.90
13589;DHT22;6865;52.552;13.434;2023-01-24T04:05:48;1.20;99.90
13589;DHT22;6865;52.552;13.434;2023-01-24T04:08:16;1.20;99.90
13589;DHT22;6865;52.552;13.434;2023-01-24T04:10:43;1.10;99.90
13589;DHT22;6865;52.552;13.434;2023-01-24T04:13:10;1.20;99.90
13589;DHT22;6865;52.552;13.434;2023-01-24T04:15:37;1.20;99.90
13589;DHT22;6865;52.552;13.434;2023-01-24T04:18:05;1.20;99.90
13589;DHT22;6865;52.552;13.434;2023-01-24T04:20:34;1.20;99.90
13589;DHT22;6865;52.552;13.434;2023-01-24T04:23:05;1.20;99.90
13589;DHT22;6865;52.552;13.434;2023-01-24T04:25:33;1.10;99.90
13589;DHT22;6865;52.552;13.434;2023-01-24T04:28:00;1.10;99.90
13589;DHT22;6865;52.552;13.434;2023-01-24T04:30:27;1.20;99.90
13589;DHT22;6865;52.552;13.434;2023-01-24T04:32:53;1.20;99.90
13589;DHT22;6865;52.552;13.434;2023-01-24T04:35:25;1.20;99.90
13589;DHT22;6865;52.552;13.434;2023-01-24T04:37:52;1.20;99.90
13589;DHT22;6865;52.552;13.434;2023-01-24T04:40:19;1.20;99.90
13589;DHT22;6865;52.552;13.434;2023-01-24T04:42:45;1.20;99.90
13589;DHT22;6865;52.552;13.434;2023-01-24T04:45:12;1.20;99.90
13589;DHT22;6865;52.552;13.434;2023-01-24T04:47:39;1.10;99.90
13589;DHT22;6865;52.552;13.434;2023-01-24T04:50:07;1.00;99.90
13589;DHT22;6865;52.552;13.434;2023-01-24T04:52:33;1.00;99.90
13589;DHT22;6865;52.552;13.434;2023-01-24T04:55:00;1.10;99.90
13589;DHT22;6865;52.552;13.434;2023-01-24T04:57:27;1.10;99.90
13589;DHT22;6865;52.552;13.434;2023-01-24T04:59:53;1.10;99.90
13589;DHT22;6865;52.552;13.434;2023-01-24T05:02:20;1.80;99.90
13589;DHT22;6865;52.552;13.434;2023-01-24T05:04:47;1.10;99.90
13589;DHT22;6865;52.552;13.434;2023-01-24T05:07:13;1.10;99.90
13589;DHT22;6865;52.552;13.434;2023-01-24T05:09:40;1.00;99.90
13589;DHT22;6865;52.552;13.434;2023-01-24T05:12:07;1.10;99.90
13589;DHT22;6865;52.552;13.434;2023-01-24T05:14:34;1.10;99.90
13589;DHT22;6865;52.552;13.434;2023-01-24T05:17:01;1.00;99.90
13589;DHT22;6865;52.552;13.434;2023-01-24T05:19:27;1.00;99.90
13589;DHT22;6865;52.552;13.434;2023-01-24T05:21:56;1.00;99.90
13589;DHT22;6865;52.552;13.434;2023-01-24T05:24:23;1.30;99.90
13589;DHT22;6865;52.552;13.434;2023-01-24T05:26:49;1.00;99.90
13589;DHT22;6865;52.552;13.434;2023-01-24T05:29:16;1.00;99.90
13589;DHT22;6865;52.552;13.434;2023-01-24T05:31:42;1.00;99.90
13589;DHT22;6865;52.552;13.434;2023-01-24T05:34:09;1.00;99.90
13589;DHT22;6865;52.552;13.434;2023-01-24T05:36:36;1.00;99.90
13589;DHT22;6865;52.552;13.434;2023-01-24T05:39:03;1.00;99.90
13589;DHT22;6865;52.552;13.434;2023-01-24T05:41:29;1.00;99.90
13589;DHT22;6865;52.552;13.434;2023-01-24T05:43:56;1.00;99.90
13589;DHT22;6865;52.552;13.434;2023-01-24T05:46:22;0.90;99.90
13589;DHT22;6865;52.552;13.434;2023-01-24T05:48:49;0.90;99.90
13589;DHT22;6865;52.552;13.434;2023-01-24T05:51:18;0.90;99.90
13589;DHT22;6865;52.552;13.434;2023-01-24T05:53:46;0.90;99.90
13589;DHT22;6865;52.552;13.434;2023-01-24T05:56:16;1.00;99.90
13589;DHT22;6865;52.552;13.434;2023-01-24T05:58:44;0.80;99.90
13589;DHT22;6865;52.552;13.434;2023-01-24T06:01:12;1.00;99.90
13589;DHT22;6865;52.552;13.434;2023-01-24T06:03:40;1.00;99.90
13589;DHT22;6865;52.552;13.434;2023-01-24T06:06:09;1.00;99.90
13589;DHT22;6865;52.552;13.434;2023-01-24T06:08:36;1.00;99.90
13589;DHT22;6865;52.552;13.434;2023-01-24T06:11:06;1.00;99.90
13589;DHT22;6865;52.552;13.434;2023-01-24T06:13:33;1.00;99.90
13589;DHT22;6865;52.552;13.434;2023-01-24T06:16:05;0.90;99.90
13589;DHT22;6865;52.552;13.434;2023-01-24T06:18:33;1.00;99.90
13589;DHT22;6865;52.552;13.434;2023-01-24T06:21:33;1.00;99.90
13589;DHT22;6865;52.552;13.434;2023-01-24T06:23:54;0.90;99.90
13589;DHT22;6865;52.552;13.434;2023-01-24T06:26:21;0.90;99.90
13589;DHT22;6865;52.552;13.434;2023-01-24T06:28:47;0.90;99.90
13589;DHT22;6865;52.552;13.434;2023-01-24T06:31:26;0.90;99.90
13589;DHT22;6865;52.552;13.434;2023-01-24T06:34:08;0.90;99.90
13589;DHT22;6865;52.552;13.434;2023-01-24T06:37:14;0.90;99.90
13589;DHT22;6865;52.552;13.434;2023-01-24T06:39:48;0.90;99.90
13589;DHT22;6865;52.552;13.434;2023-01-24T06:42:17;0.90;99.90
13589;DHT22;6865;52.552;13.434;2023-01-24T06:44:44;0.90;99.90
13589;DHT22;6865;52.552;13.434;2023-01-24T06:47:11;0.90;99.90
13589;DHT22;6865;52.552;13.434;2023-01-24T06:49:39;0.90;99.90
13589;DHT22;6865;52.552;13.434;2023-01-24T06:52:06;0.90;99.90
13589;DHT22;6865;52.552;13.434;2023-01-24T06:54:33;0.90;99.90
13589;DHT22;6865;52.552;13.434;2023-01-24T06:57:00;0.90;99.90
13589;DHT22;6865;52.552;13.434;2023-01-24T06:59:27;0.90;99.90
13589;DHT22;6865;52.552;13.434;2023-01-24T07:01:53;0.90;99.90
13589;DHT22;6865;52.552;13.434;2023-01-24T07:04:20;0.90;99.90
13589;DHT22;6865;52.552;13.434;2023-01-24T07:06:47;0.90;99.90
13589;DHT22;6865;52.552;13.434;2023-01-24T07:09:22;0.90;99.90
13589;DHT22;6865;52.552;13.434;2023-01-24T07:11:49;0.90;99.90
13589;DHT22;6865;52.552;13.434;2023-01-24T07:14:19;0.90;99.90
13589;DHT22;6865;52.552;13.434;2023-01-24T07:16:46;0.90;99.90
13589;DHT22;6865;52.552;13.434;2023-01-24T07:19:18;0.90;99.90
13589;DHT22;6865;52.552;13.434;2023-01-24T07:21:45;1.00;99.90
13589;DHT22;6865;52.552;13.434;2023-01-24T07:24:19;0.90;99.90
13589;DHT22;6865;52.552;13.434;2023-01-24T07:26:47;0.90;99.90
13589;DHT22;6865;52.552;13.434;2023-01-24T07:29:18;0.90;99.90
13589;DHT22;6865;52.552;13.434;2023-01-24T07:31:44;0.90;99.90
13589;DHT22;6865;52.552;13.434;2023-01-24T07:34:11;0.90;99.90
13589;DHT22;6865;52.552;13.434;2023-01-24T07:36:43;1.00;99.90
13589;DHT22;6865;52.552;13.434;2023-01-24T07:39:10;0.90;99.90
13589;DHT22;6865;52.552;13.434;2023-01-24T07:41:37;1.00;99.90
13589;DHT22;6865;52.552;13.434;2023-01-24T07:44:05;1.00;99.90
13589;DHT22;6865;52.552;13.434;2023-01-24T07:46:33;1.10;99.90
13589;DHT22;6865;52.552;13.434;2023-01-24T07:49:00;1.10;99.90
13589;DHT22;6865;52.552;13.434;2023-01-24T07:51:27;1.10;99.90
13589;DHT22;6865;52.552;13.434;2023-01-24T07:53:54;1.10;99.90
13589;DHT22;6865;52.552;13.434;2023-01-24T07:56:21;1.20;99.90
13589;DHT22;6865;52.552;13.434;2023-01-24T07:58:52;1.10;99.90
13589;DHT22;6865;52.552;13.434;2023-01-24T08:01:20;1.20;99.90
13589;DHT22;6865;52.552;13.434;2023-01-24T08:03:47;1.30;99.90
13589;DHT22;6865;52.552;13.434;2023-01-24T08:06:14;1.30;99.90
13589;DHT22;6865;52.552;13.434;2023-01-24T08:08:41;1.30;99.90
13589;DHT22;6865;52.552;13.434;2023-01-24T08:11:07;1.30;99.90
13589;DHT22;6865;52.552;13.434;2023-01-24T08:13:37;1.30;99.90
13589;DHT22;6865;52.552;13.434;2023-01-24T08:16:04;1.30;99.90
13589;DHT22;6865;52.552;13.434;2023-01-24T08:18:31;1.30;99.90
13589;DHT22;6865;52.552;13.434;2023-01-24T08:20:58;1.30;99.90
13589;DHT22;6865;52.552;13.434;2023-01-24T08:23:25;1.30;99.90
13589;DHT22;6865;52.552;13.434;2023-01-24T08:25:52;1.30;99.90
13589;DHT22;6865;52.552;13.434;2023-01-24T08:28:19;1.10;99.90
13589;DHT22;6865;52.552;13.434;2023-01-24T08:30:45;1.20;99.90
13589;DHT22;6865;52.552;13.434;2023-01-24T08:33:12;1.30;99.90
13589;DHT22;6865;52.552;13.434;2023-01-24T08:35:44;1.20;99.90
13589;DHT22;6865;52.552;13.434;2023-01-24T08:38:12;1.20;99.90
13589;DHT22;6865;52.552;13.434;2023-01-24T08:40:39;1.20;99.90
13589;DHT22;6865;52.552;13.434;2023-01-24T08:43:15;1.20;99.90
13589;DHT22;6865;52.552;13.434;2023-01-24T08:45:42;1.20;99.90
13589;DHT22;6865;52.552;13.434;2023-01-24T08:48:08;1.30;99.90
13589;DHT22;6865;52.552;13.434;2023-01-24T08:50:35;1.40;99.90
13589;DHT22;6865;52.552;13.434;2023-01-24T08:53:02;1.30;99.90
13589;DHT22;6865;52.552;13.434;2023-01-24T08:55:28;1.30;99.90
13589;DHT22;6865;52.552;13.434;2023-01-24T08:58:02;1.40;99.90
13589;DHT22;6865;52.552;13.434;2023-01-24T09:00:30;1.50;99.90
13589;DHT22;6865;52.552;13.434;2023-01-24T09:02:57;1.50;99.90
13589;DHT22;6865;52.552;13.434;2023-01-24T09:05:28;1.50;99.90
13589;DHT22;6865;52.552;13.434;2023-01-24T09:07:55;1.60;99.90
13589;DHT22;6865;52.552;13.434;2023-01-24T09:10:22;1.60;99.90
13589;DHT22;6865;52.552;13.434;2023-01-24T09:12:48;1.70;99.90
13589;DHT22;6865;52.552;13.434;2023-01-24T09:15:15;1.70;99.90
13589;DHT22;6865;52.552;13.434;2023-01-24T09:17:42;1.70;99.90
13589;DHT22;6865;52.552;13.434;2023-01-24T09:20:09;1.70;99.90
13589;DHT22;6865;52.552;13.434;2023-01-24T09:22:36;1.70;99.90
13589;DHT22;6865;52.552;13.434;2023-01-24T09:25:03;1.70;99.90
13589;DHT22;6865;52.552;13.434;2023-01-24T09:27:30;1.70;99.90
13589;DHT22;6865;52.552;13.434;2023-01-24T09:29:57;1.70;99.90
13589;DHT22;6865;52.552;13.434;2023-01-24T09:32:23;1.70;99.90
13589;DHT22;6865;52.552;13.434;2023-01-24T09:34:50;1.70;99.90
13589;DHT22;6865;52.552;13.434;2023-01-24T09:37:18;1.70;99.90
13589;DHT22;6865;52.552;13.434;2023-01-24T09:39:45;1.80;99.90
13589;DHT22;6865;52.552;13.434;2023-01-24T09:42:33;1.80;99.90
13589;DHT22;6865;52.552;13.434;2023-01-24T09:45:15;1.80;99.90
13589;DHT22;6865;52.552;13.434;2023-01-24T09:47:54;1.80;99.90
13589;DHT22;6865;52.552;13.434;2023-01-24T09:50:46;1.70;99.90
13589;DHT22;6865;52.552;13.434;2023-01-24T09:53:18;1.70;99.90
13589;DHT22;6865;52.552;13.434;2023-01-24T09:55:46;1.80;99.90
13589;DHT22;6865;52.552;13.434;2023-01-24T09:58:24;1.90;99.90
13589;DHT22;6865;52.552;13.434;2023-01-24T10:01:16;1.70;99.90
13589;DHT22;6865;52.552;13.434;2023-01-24T10:03:42;2.00;99.90
13589;DHT22;6865;52.552;13.434;2023-01-24T10:06:22;1.90;99.90
13589;DHT22;6865;52.552;13.434;2023-01-24T10:12:00;2.40;99.90
13589;DHT22;6865;52.552;13.434;2023-01-24T10:14:49;2.40;99.90
13589;DHT22;6865;52.552;13.434;2023-01-24T10:17:43;2.40;99.90
13589;DHT22;6865;52.552;13.434;2023-01-24T10:20:47;2.50;99.90
13589;DHT22;6865;52.552;13.434;2023-01-24T10:23:20;2.40;99.90
13589;DHT22;6865;52.552;13.434;2023-01-24T10:25:55;2.50;99.90
13589;DHT22;6865;52.552;13.434;2023-01-24T10:28:33;2.50;99.90
13589;DHT22;6865;52.552;13.434;2023-01-24T10:31:16;2.60;99.90
13589;DHT22;6865;52.552;13.434;2023-01-24T10:33:47;2.60;99.90
13589;DHT22;6865;52.552;13.434;2023-01-24T10:39:10;2.70;99.90
13589;DHT22;6865;52.552;13.434;2023-01-24T10:41:37;2.70;99.90
13589;DHT22;6865;52.552;13.434;2023-01-24T10:44:14;2.70;99.90
13589;DHT22;6865;52.552;13.434;2023-01-24T10:49:32;2.70;99.90
13589;DHT22;6865;52.552;13.434;2023-01-24T10:52:11;2.70;99.90
13589;DHT22;6865;52.552;13.434;2023-01-24T10:54:55;2.70;99.90
13589;DHT22;6865;52.552;13.434;2023-01-24T11:00:05;2.80;99.90
13589;DHT22;6865;52.552;13.434;2023-01-24T11:02:33;2.90;99.90
13589;DHT22;6865;52.552;13.434;2023-01-24T11:05:06;2.90;99.90
13589;DHT22;6865;52.552;13.434;2023-01-24T11:07:35;2.80;99.90
13589;DHT22;6865;52.552;13.434;2023-01-24T11:12:48;2.90;99.90
13589;DHT22;6865;52.552;13.434;2023-01-24T11:15:26;2.80;99.90
13589;DHT22;6865;52.552;13.434;2023-01-24T11:17:59;3.00;99.90
13589;DHT22;6865;52.552;13.434;2023-01-24T11:20:29;3.00;99.90
13589;DHT22;6865;52.552;13.434;2023-01-24T11:23:15;3.10;99.90
13589;DHT22;6865;52.552;13.434;2023-01-24T11:25:56;3.20;99.90
13589;DHT22;6865;52.552;13.434;2023-01-24T11:28:28;3.10;99.90
13589;DHT22;6865;52.552;13.434;2023-01-24T11:30:58;3.10;99.90
13589;DHT22;6865;52.552;13.434;2023-01-24T11:36:39;3.10;99.90
13589;DHT22;6865;52.552;13.434;2023-01-24T11:39:19;3.00;99.90
13589;DHT22;6865;52.552;13.434;2023-01-24T11:42:17;3.10;99.90
13589;DHT22;6865;52.552;13.434;2023-01-24T11:45:11;3.10;99.90
13589;DHT22;6865;52.552;13.434;2023-01-24T11:50:33;3.30;99.90
13589;DHT22;6865;52.552;13.434;2023-01-24T11:59:07;3.40;99.90
13589;DHT22;6865;52.552;13.434;2023-01-24T12:04:50;3.30;99.90
13589;DHT22;6865;52.552;13.434;2023-01-24T12:07:44;3.30;99.90
13589;DHT22;6865;52.552;13.434;2023-01-24T12:10:40;3.40;99.90
13589;DHT22;6865;52.552;13.434;2023-01-24T12:13:43;3.30;99.90
13589;DHT22;6865;52.552;13.434;2023-01-24T12:19:08;3.30;99.90
13589;DHT22;6865;52.552;13.434;2023-01-24T12:21:38;3.30;99.90
13589;DHT22;6865;52.552;13.434;2023-01-24T12:24:19;3.20;99.90
13589;DHT22;6865;52.552;13.434;2023-01-24T12:26:50;3.20;99.90
13589;DHT22;6865;52.552;13.434;2023-01-24T12:29:34;3.20;99.90
13589;DHT22;6865;52.552;13.434;2023-01-24T12:32:25;3.20;99.90
13589;DHT22;6865;52.552;13.434;2023-01-24T12:37:42;3.20;99.90
13589;DHT22;6865;52.552;13.434;2023-01-24T12:40:22;3.20;99.90
13589;DHT22;6865;52.552;13.434;2023-01-24T12:43:03;3.20;99.90
13589;DHT22;6865;52.552;13.434;2023-01-24T12:46:06;3.10;99.90
13589;DHT22;6865;52.552;13.434;2023-01-24T12:48:42;3.10;99.90
13589;DHT22;6865;52.552;13.434;2023-01-24T12:51:20;3.10;99.90
13589;DHT22;6865;52.552;13.434;2023-01-24T12:54:10;2.80;99.90
13589;DHT22;6865;52.552;13.434;2023-01-24T12:56:48;3.10;99.90
13589;DHT22;6865;52.552;13.434;2023-01-24T12:59:22;3.10;99.90
13589;DHT22;6865;52.552;13.434;2023-01-24T13:02:15;3.10;99.90
13589;DHT22;6865;52.552;13.434;2023-01-24T13:05:03;3.10;99.90
13589;DHT22;6865;52.552;13.434;2023-01-24T13:10:31;3.00;99.90
13589;DHT22;6865;52.552;13.434;2023-01-24T13:13:02;3.00;99.90
13589;DHT22;6865;52.552;13.434;2023-01-24T13:15:49;3.00;99.90
13589;DHT22;6865;52.552;13.434;2023-01-24T13:21:43;3.10;99.90
13589;DHT22;6865;52.552;13.434;2023-01-24T13:24:41;3.00;99.90
13589;DHT22;6865;52.552;13.434;2023-01-24T13:27:48;2.90;99.90
13589;DHT22;6865;52.552;13.434;2023-01-24T13:30:35;2.90;99.90
13589;DHT22;6865;52.552;13.434;2023-01-24T13:33:05;2.90;99.90
13589;DHT22;6865;52.552;13.434;2023-01-24T13:35:32;2.90;99.90
13589;DHT22;6865;52.552;13.434;2023-01-24T13:38:04;2.80;99.90
13589;DHT22;6865;52.552;13.434;2023-01-24T13:40:32;2.90;99.90
13589;DHT22;6865;52.552;13.434;2023-01-24T13:43:03;2.80;99.90
13589;DHT22;6865;52.552;13.434;2023-01-24T13:51:27;2.90;99.90
13589;DHT22;6865;52.552;13.434;2023-01-24T13:54:20;2.90;99.90
13589;DHT22;6865;52.552;13.434;2023-01-24T13:57:17;3.00;99.90
13589;DHT22;6865;52.552;13.434;2023-01-24T14:10:47;2.90;99.90
13589;DHT22;6865;52.552;13.434;2023-01-24T14:16:10;2.90;99.90
13589;DHT22;6865;52.552;13.434;2023-01-24T14:21:44;2.90;99.90
13589;DHT22;6865;52.552;13.434;2023-01-24T14:26:51;2.90;99.90
13589;DHT22;6865;52.552;13.434;2023-01-24T14:29:20;2.90;99.90
13589;DHT22;6865;52.552;13.434;2023-01-24T14:31:51;2.80;99.90
13589;DHT22;6865;52.552;13.434;2023-01-24T14:34:43;2.80;99.90
13589;DHT22;6865;52.552;13.434;2023-01-24T14:37:11;2.90;99.90
13589;DHT22;6865;52.552;13.434;2023-01-24T14:39:39;2.90;99.90
13589;DHT22;6865;52.552;13.434;2023-01-24T14:42:14;2.70;99.90
13589;DHT22;6865;52.552;13.434;2023-01-24T14:44:54;2.90;99.90
13589;DHT22;6865;52.552;13.434;2023-01-24T14:47:23;2.90;99.90
13589;DHT22;6865;52.552;13.434;2023-01-24T14:49:55;2.80;99.90
13589;DHT22;6865;52.552;13.434;2023-01-24T14:52:27;2.80;99.90
13589;DHT22;6865;52.552;13.434;2023-01-24T14:54:59;2.80;99.90
13589;DHT22;6865;52.552;13.434;2023-01-24T14:57:28;2.80;99.90
13589;DHT22;6865;52.552;13.434;2023-01-24T15:00:15;2.80;99.90
13589;DHT22;6865;52.552;13.434;2023-01-24T15:05:27;2.80;99.90
13589;DHT22;6865;52.552;13.434;2023-01-24T15:07:54;2.80;99.90
13589;DHT22;6865;52.552;13.434;2023-01-24T15:10:23;2.50;99.90
13589;DHT22;6865;52.552;13.434;2023-01-24T15:12:55;2.70;99.90
13589;DHT22;6865;52.552;13.434;2023-01-24T15:15:24;2.70;99.90
13589;DHT22;6865;52.552;13.434;2023-01-24T15:18:03;2.70;99.90
13589;DHT22;6865;52.552;13.434;2023-01-24T15:20:30;2.70;99.90
13589;DHT22;6865;52.552;13.434;2023-01-24T15:22:59;2.70;99.90
13589;DHT22;6865;52.552;13.434;2023-01-24T15:25:29;2.60;99.90
13589;DHT22;6865;52.552;13.434;2023-01-24T15:28:07;2.60;99.90
13589;DHT22;6865;52.552;13.434;2023-01-24T15:30:34;2.60;99.90
13589;DHT22;6865;52.552;13.434;2023-01-24T15:33:02;2.60;99.90
13589;DHT22;6865;52.552;13.434;2023-01-24T15:35:39;2.70;99.90
13589;DHT22;6865;52.552;13.434;2023-01-24T15:40:51;2.60;99.90
13589;DHT22;6865;52.552;13.434;2023-01-24T15:46:31;2.50;99.90
13589;DHT22;6865;52.552;13.434;2023-01-24T15:49:35;2.50;99.90
13589;DHT22;6865;52.552;13.434;2023-01-24T15:54:31;2.60;99.90
13589;DHT22;6865;52.552;13.434;2023-01-24T15:57:01;2.60;99.90
13589;DHT22;6865;52.552;13.434;2023-01-24T15:59:28;2.50;99.90
13589;DHT22;6865;52.552;13.434;2023-01-24T16:01:55;2.50;99.90
13589;DHT22;6865;52.552;13.434;2023-01-24T16:04:23;2.50;99.90
13589;DHT22;6865;52.552;13.434;2023-01-24T16:06:50;2.50;99.90
13589;DHT22;6865;52.552;13.434;2023-01-24T16:09:16;2.60;99.90
13589;DHT22;6865;52.552;13.434;2023-01-24T16:11:45;2.60;99.90
13589;DHT22;6865;52.552;13.434;2023-01-24T16:14:22;2.60;99.90
13589;DHT22;6865;52.552;13.434;2023-01-24T16:16:52;2.50;99.90
13589;DHT22;6865;52.552;13.434;2023-01-24T16:19:21;2.50;99.90
13589;DHT22;6865;52.552;13.434;2023-01-24T16:21:48;2.50;99.90
13589;DHT22;6865;52.552;13.434;2023-01-24T16:24:15;2.60;99.90
13589;DHT22;6865;52.552;13.434;2023-01-24T16:26:50;2.50;99.90
13589;DHT22;6865;52.552;13.434;2023-01-24T16:29:21;2.50;99.90
13589;DHT22;6865;52.552;13.434;2023-01-24T16:31:48;2.50;99.90
13589;DHT22;6865;52.552;13.434;2023-01-24T16:34:14;3.00;99.90
13589;DHT22;6865;52.552;13.434;2023-01-24T16:36:41;2.50;99.90
13589;DHT22;6865;52.552;13.434;2023-01-24T16:39:13;2.50;99.90
13589;DHT22;6865;52.552;13.434;2023-01-24T16:41:41;2.50;99.90
13589;DHT22;6865;52.552;13.434;2023-01-24T16:44:07;2.50;99.90
13589;DHT22;6865;52.552;13.434;2023-01-24T16:46:34;2.50;99.90
13589;DHT22;6865;52.552;13.434;2023-01-24T16:49:01;2.50;99.90
13589;DHT22;6865;52.552;13.434;2023-01-24T16:51:27;2.40;99.90
13589;DHT22;6865;52.552;13.434;2023-01-24T16:53:55;2.40;99.90
13589;DHT22;6865;52.552;13.434;2023-01-24T16:56:22;2.40;99.90
13589;DHT22;6865;52.552;13.434;2023-01-24T16:58:54;2.40;99.90
13589;DHT22;6865;52.552;13.434;2023-01-24T17:01:21;2.30;99.90
13589;DHT22;6865;52.552;13.434;2023-01-24T17:03:52;2.40;99.90
13589;DHT22;6865;52.552;13.434;2023-01-24T17:06:19;2.40;99.90
13589;DHT22;6865;52.552;13.434;2023-01-24T17:08:50;2.40;99.90
13589;DHT22;6865;52.552;13.434;2023-01-24T17:11:17;2.30;99.90
13589;DHT22;6865;52.552;13.434;2023-01-24T17:13:46;2.30;99.90
13589;DHT22;6865;52.552;13.434;2023-01-24T17:16:13;2.40;99.90
13589;DHT22;6865;52.552;13.434;2023-01-24T17:18:40;2.40;99.90
13589;DHT22;6865;52.552;13.434;2023-01-24T17:21:10;4.10;99.90
13589;DHT22;6865;52.552;13.434;2023-01-24T17:23:38;2.30;99.90
13589;DHT22;6865;52.552;13.434;2023-01-24T17:26:14;2.30;99.90
13589;DHT22;6865;52.552;13.434;2023-01-24T17:28:42;2.20;99.90
13589;DHT22;6865;52.552;13.434;2023-01-24T17:31:14;2.20;99.90
13589;DHT22;6865;52.552;13.434;2023-01-24T17:33:41;2.20;99.90
13589;DHT22;6865;52.552;13.434;2023-01-24T17:36:09;2.20;99.90